Time;durP1;ratioP1;P1;durP2;ratioP2;P2;SDS_P1;SDS_P2;PMS_P1;PMS_P2;Temp;Humidity;BMP_temperature;BMP_pressure;BME280_temperature;BME280_humidity;BME280_pressure;Samples;Min_cycle;Max_cycle;Signal;HPM_P1;HPM_P2
2022/08/17 00:00:08;;;;;;;11.65;6.97;;;24.10;94.10;;;;;;7336353;19;110818;-76
2022/08/17 00:03:20;;;;;;;14.52;7.32;;;24.10;94.20;;;;;;7334205;19;113034;-76
2022/08/17 00:05:59;;;;;;;7.45;6.72;;;24.10;94.30;;;;;;7335222;19;110675;-76
2022/08/17 00:08:33;;;;;;;7.30;6.70;;;24.10;94.30;;;;;;7334844;19;110765;-76
2022/08/17 00:11:04;;;;;;;12.98;7.65;;;24.10;94.50;;;;;;7333929;19;112350;-76
2022/08/17 00:13:39;;;;;;;8.93;6.53;;;24.10;94.70;;;;;;7331745;19;109667;-76
2022/08/17 00:16:36;;;;;;;7.55;6.78;;;23.90;94.90;;;;;;7332867;19;110895;-76
2022/08/17 00:19:24;;;;;;;10.65;7.10;;;23.90;95.20;;;;;;7328648;19;112768;-76
2022/08/17 00:21:55;;;;;;;8.77;7.45;;;24.00;95.10;;;;;;7338466;19;110598;-76
2022/08/17 00:24:42;;;;;;;10.30;7.55;;;24.00;95.00;;;;;;7333569;19;113995;-76
2022/08/17 00:27:09;;;;;;;12.35;7.38;;;23.90;95.40;;;;;;7333536;19;111285;-76
2022/08/17 00:29:36;;;;;;;14.43;7.70;;;23.90;95.40;;;;;;7332119;19;110531;-76
2022/08/17 00:32:03;;;;;;;16.13;7.78;;;23.90;95.30;;;;;;7335430;19;111227;-76
2022/08/17 00:34:50;;;;;;;14.38;6.75;;;23.90;95.40;;;;;;7335266;19;111008;-77
2022/08/17 00:37:17;;;;;;;9.45;6.68;;;23.90;95.40;;;;;;7334650;19;111230;-76
2022/08/17 00:39:44;;;;;;;10.00;7.20;;;23.90;95.50;;;;;;7334729;19;111005;-77
2022/08/17 00:42:18;;;;;;;8.82;7.43;;;23.90;95.60;;;;;;7330960;19;110820;-76
2022/08/17 00:44:45;;;;;;;11.88;7.93;;;23.90;95.50;;;;;;7340945;19;111134;-75
2022/08/17 00:47:12;;;;;;;16.52;7.82;;;23.90;95.70;;;;;;7331779;19;110703;-77
2022/08/17 00:49:39;;;;;;;10.07;8.65;;;23.80;95.70;;;;;;7333428;19;114862;-76
2022/08/17 00:52:15;;;;;;;14.43;8.52;;;23.80;96.00;;;;;;7335478;19;110886;-76
2022/08/17 00:54:45;;;;;;;14.07;8.25;;;23.80;95.90;;;;;;7332478;19;109952;-76
2022/08/17 00:57:46;;;;;;;12.63;8.45;;;23.80;95.90;;;;;;7334554;19;111518;-76
2022/08/17 01:00:25;;;;;;;18.50;9.57;;;23.90;96.00;;;;;;7334091;19;111096;-77
2022/08/17 01:03:07;;;;;;;11.95;8.48;;;23.80;96.30;;;;;;7330945;19;109665;-76
2022/08/17 01:05:37;;;;;;;7.25;6.55;;;23.70;96.10;;;;;;7335068;19;110674;-77
2022/08/17 01:08:12;;;;;;;9.05;7.93;;;23.80;96.40;;;;;;7341193;19;110804;-76
2022/08/17 01:10:43;;;;;;;9.60;7.68;;;23.80;96.60;;;;;;7334347;19;110495;-76
2022/08/17 01:13:29;;;;;;;;;;;23.80;96.70;;;;;;7333855;19;112317;-76
2022/08/17 01:16:17;;;;;;;7.50;6.90;;;23.80;96.70;;;;;;7339635;19;109509;-76
2022/08/17 01:18:47;;;;;;;9.70;7.50;;;23.80;96.90;;;;;;7334791;19;112362;-76
2022/08/17 01:21:19;;;;;;;8.45;7.43;;;23.80;96.80;;;;;;7333324;19;110582;-76
2022/08/17 01:23:46;;;;;;;11.27;7.50;;;23.80;96.80;;;;;;7334347;19;110325;-76
2022/08/17 01:26:13;;;;;;;11.98;7.90;;;23.80;96.90;;;;;;7333969;19;109557;-76
2022/08/17 01:28:41;;;;;;;9.60;8.38;;;23.80;97.00;;;;;;7335604;19;111261;-76
2022/08/17 01:31:24;;;;;;;11.15;9.30;;;23.80;96.90;;;;;;7341853;19;109442;-75
2022/08/17 01:33:51;;;;;;;10.55;9.38;;;23.80;97.00;;;;;;7336800;19;111225;-76
2022/08/17 01:36:18;;;;;;;10.45;8.95;;;23.80;97.40;;;;;;7334185;19;110026;-76
2022/08/17 01:38:45;;;;;;;9.85;8.68;;;23.70;97.40;;;;;;7336545;19;110896;-76
2022/08/17 01:41:15;;;;;;;12.38;10.25;;;23.80;97.40;;;;;;7331622;19;111280;-76
2022/08/17 01:43:55;;;;;;;13.20;9.75;;;23.80;97.50;;;;;;7331013;19;109936;-76
2022/08/17 01:46:27;;;;;;;12.02;10.75;;;23.80;97.50;;;;;;7335842;19;110427;-77
2022/08/17 01:48:56;;;;;;;18.92;14.10;;;23.70;97.60;;;;;;7332651;19;110249;-76
2022/08/17 01:51:26;;;;;;;16.50;14.55;;;23.70;97.70;;;;;;7332647;19;111116;-76
2022/08/17 01:53:57;;;;;;;15.25;11.43;;;23.50;97.80;;;;;;7337689;19;111222;-77
2022/08/17 01:56:25;;;;;;;19.58;13.50;;;23.50;98.00;;;;;;7332423;19;112709;-76
2022/08/17 01:58:53;;;;;;;16.13;13.32;;;23.50;97.90;;;;;;7331785;19;111769;-76
2022/08/17 02:01:25;;;;;;;15.02;12.52;;;23.60;97.80;;;;;;7331227;19;112813;-77
2022/08/17 02:03:53;;;;;;;15.85;13.60;;;23.60;97.70;;;;;;7330413;19;114053;-76
2022/08/17 02:06:33;;;;;;;19.60;14.75;;;23.60;97.80;;;;;;7331415;19;111595;-76
2022/08/17 02:09:27;;;;;;;18.35;14.82;;;23.50;98.00;;;;;;7331372;19;112059;-76
2022/08/17 02:11:58;;;;;;;16.87;13.50;;;23.30;98.30;;;;;;7332761;19;111529;-77
2022/08/17 02:14:25;;;;;;;15.75;12.88;;;23.20;98.40;;;;;;7337317;19;115355;-76
2022/08/17 02:16:53;;;;;;;12.65;11.38;;;23.30;98.50;;;;;;7335394;19;111915;-77
2022/08/17 02:19:21;;;;;;;13.73;11.07;;;23.30;98.40;;;;;;7338988;19;110877;-77
2022/08/17 02:21:51;;;;;;;13.65;12.00;;;23.40;98.40;;;;;;7337093;19;110167;-77
2022/08/17 02:24:30;;;;;;;13.68;12.45;;;23.30;98.40;;;;;;7339417;19;111364;-77
2022/08/17 02:27:17;;;;;;;15.55;12.07;;;23.40;99.20;;;;;;7337385;19;113299;-76
2022/08/17 02:29:45;;;;;;;13.02;11.65;;;23.40;98.80;;;;;;7338540;19;111199;-77
2022/08/17 02:32:17;;;;;;;15.02;11.68;;;23.40;98.90;;;;;;7339383;19;111762;-77
2022/08/17 02:34:54;;;;;;;12.98;11.65;;;23.40;99.20;;;;;;7337301;19;111372;-77
2022/08/17 02:37:22;;;;;;;15.77;12.32;;;23.40;99.30;;;;;;7342995;19;111015;-77
2022/08/17 02:39:49;;;;;;;12.93;11.70;;;23.40;99.50;;;;;;7339547;19;111934;-77
2022/08/17 02:42:16;;;;;;;14.60;13.05;;;23.30;99.40;;;;;;7337139;19;112340;-78
2022/08/17 02:44:43;;;;;;;15.30;13.73;;;23.30;99.40;;;;;;7339397;19;111929;-77
2022/08/17 02:47:11;;;;;;;19.05;13.50;;;23.30;99.20;;;;;;7338577;19;110716;-77
2022/08/17 02:49:38;;;;;;;16.05;13.00;;;23.30;99.10;;;;;;7336961;19;110177;-77
2022/08/17 02:52:06;;;;;;;14.68;13.15;;;23.30;99.10;;;;;;7339635;19;111323;-76
2022/08/17 02:54:35;;;;;;;19.40;13.02;;;23.20;99.20;;;;;;7339172;19;111766;-77
2022/08/17 02:57:08;;;;;;;15.50;13.95;;;23.20;99.10;;;;;;7337873;19;111217;-75
2022/08/17 02:59:39;;;;;;;21.00;13.57;;;23.20;99.20;;;;;;7343009;19;111504;-76
2022/08/17 03:02:14;;;;;;;19.33;14.57;;;23.20;99.20;;;;;;7337618;19;112617;-75
2022/08/17 03:04:41;;;;;;;15.02;13.38;;;23.10;99.30;;;;;;7337588;19;112013;-76
2022/08/17 03:07:08;;;;;;;17.67;13.63;;;23.20;99.30;;;;;;7338755;19;112028;-75
2022/08/17 03:09:36;;;;;;;21.77;13.88;;;23.10;99.20;;;;;;7336940;19;111151;-75
2022/08/17 03:12:09;;;;;;;16.27;13.30;;;23.10;99.40;;;;;;7339395;19;111522;-75
2022/08/17 03:14:38;;;;;;;14.10;12.75;;;23.10;99.50;;;;;;7336672;19;110836;-75
2022/08/17 03:17:08;;;;;;;15.88;14.27;;;23.10;99.70;;;;;;7337957;19;112601;-76
2022/08/17 03:19:36;;;;;;;16.58;14.88;;;23.10;99.80;;;;;;7336262;19;110499;-75
2022/08/17 03:22:08;;;;;;;16.52;14.68;;;23.10;99.90;;;;;;7339098;19;111269;-76
2022/08/17 03:24:55;;;;;;;18.05;15.27;;;23.10;99.90;;;;;;7337773;19;114172;-75
2022/08/17 03:27:22;;;;;;;20.42;15.88;;;23.10;99.90;;;;;;7333827;19;110853;-75
2022/08/17 03:29:49;;;;;;;17.17;15.38;;;23.10;99.90;;;;;;7338464;19;111515;-76
2022/08/17 03:32:19;;;;;;;22.42;17.38;;;23.10;99.90;;;;;;7337871;19;111806;-75
2022/08/17 03:34:46;;;;;;;25.60;17.35;;;23.00;99.90;;;;;;7335278;19;111842;-75
2022/08/17 03:37:15;;;;;;;18.75;15.00;;;22.80;99.90;;;;;;7337221;19;110184;-75
2022/08/17 03:39:42;;;;;;;19.58;16.13;;;22.80;99.90;;;;;;7335403;19;112685;-75
2022/08/17 03:42:13;;;;;;;17.85;16.00;;;22.80;99.90;;;;;;7336305;19;111611;-75
2022/08/17 03:44:58;;;;;;;21.85;16.90;;;22.80;99.90;;;;;;7341791;19;111128;-75
2022/08/17 03:56:47;;;;;;;21.88;18.45;;;22.60;99.90;;;;;;7338014;19;111867;-78
2022/08/17 03:58:43;;;;;;;22.15;17.38;;;22.50;99.90;;;;;;7335091;19;111986;-79
2022/08/17 04:01:11;;;;;;;20.23;17.52;;;22.50;99.90;;;;;;7332164;19;111438;-79
2022/08/17 04:03:38;;;;;;;22.85;16.77;;;22.50;99.90;;;;;;7333026;19;110990;-79
2022/08/17 04:06:06;;;;;;;24.25;17.23;;;22.50;99.90;;;;;;7336709;19;110894;-79
2022/08/17 04:08:33;;;;;;;18.70;16.80;;;22.50;99.90;;;;;;7339083;19;110975;-79
2022/08/17 04:11:15;;;;;;;21.88;17.60;;;22.60;99.90;;;;;;7336166;19;111048;-79
2022/08/17 04:13:42;;;;;;;21.20;17.33;;;22.50;99.90;;;;;;7332109;19;110482;-79
2022/08/17 04:16:09;;;;;;;22.75;18.38;;;22.40;99.90;;;;;;7337019;19;115153;-79
2022/08/17 04:18:36;;;;;;;18.90;17.05;;;22.30;99.90;;;;;;7335275;19;113690;-79
2022/08/17 04:21:07;;;;;;;22.13;18.17;;;22.20;99.90;;;;;;7332149;19;110916;-79
2022/08/17 04:23:35;;;;;;;22.17;18.30;;;22.20;99.90;;;;;;7334955;19;111761;-79
2022/08/17 04:26:03;;;;;;;25.83;18.30;;;22.20;99.90;;;;;;7336605;19;111008;-80
2022/08/17 04:28:30;;;;;;;18.90;16.15;;;22.20;99.90;;;;;;7340673;19;111124;-79
2022/08/17 04:30:57;;;;;;;18.50;16.50;;;22.20;99.90;;;;;;7335660;19;113002;-79
2022/08/17 04:33:27;;;;;;;22.95;16.40;;;22.20;99.90;;;;;;7336335;19;114093;-79
2022/08/17 04:35:58;;;;;;;22.10;15.65;;;22.30;99.90;;;;;;7336711;19;111940;-78
2022/08/17 04:38:28;;;;;;;25.55;18.20;;;22.30;99.90;;;;;;7334580;19;112172;-79
2022/08/17 04:43:43;;;;;;;;;;;22.50;99.90;;;;;;7334374;19;111630;-79
2022/08/17 04:46:13;;;;;;;22.60;18.58;;;22.40;99.90;;;;;;7342555;19;111050;-78
2022/08/17 04:48:43;;;;;;;24.55;19.77;;;22.30;99.90;;;;;;7338428;19;110687;-79
2022/08/17 04:51:12;;;;;;;24.10;21.35;;;22.30;99.90;;;;;;7340405;19;116251;-79
2022/08/17 04:53:43;;;;;;;24.08;21.33;;;22.40;99.90;;;;;;7334241;19;111826;-79
2022/08/17 04:56:14;;;;;;;24.33;20.13;;;22.40;99.90;;;;;;7336236;19;112140;-79
2022/08/17 04:58:46;;;;;;;28.70;22.13;;;22.40;99.90;;;;;;7334736;19;110848;-78
2022/08/17 05:01:16;;;;;;;26.58;22.17;;;22.50;99.90;;;;;;7335551;19;111837;-80
2022/08/17 05:03:54;;;;;;;25.98;22.73;;;22.50;99.90;;;;;;7332122;19;112128;-81
2022/08/17 05:06:22;;;;;;;25.60;22.95;;;22.50;99.90;;;;;;7334842;19;111582;-83
2022/08/17 05:08:50;;;;;;;31.42;23.55;;;22.40;99.90;;;;;;7335431;19;111360;-81
2022/08/17 05:11:17;;;;;;;34.35;24.15;;;22.40;99.90;;;;;;7335749;19;112381;-83
2022/08/17 05:13:44;;;;;;;33.40;23.92;;;22.50;99.90;;;;;;7342468;19;110979;-82
2022/08/17 05:16:11;;;;;;;30.85;24.92;;;22.50;99.90;;;;;;7334988;19;112350;-81
2022/08/17 05:18:38;;;;;;;31.65;26.63;;;22.50;99.90;;;;;;7335987;19;111456;-82
2022/08/17 05:21:06;;;;;;;34.60;26.45;;;22.50;99.90;;;;;;7333965;19;111785;-83
2022/08/17 05:23:35;;;;;;;36.90;26.30;;;22.40;99.90;;;;;;7335887;19;112479;-83
2022/08/17 05:26:12;;;;;;;37.63;28.52;;;22.30;99.90;;;;;;7336618;19;111231;-83
2022/08/17 05:28:54;;;;;;;38.05;27.08;;;22.30;99.90;;;;;;7336622;19;112022;-82
2022/08/17 05:31:26;;;;;;;34.55;26.77;;;22.20;99.90;;;;;;7334610;19;112396;-82
2022/08/17 05:33:53;;;;;;;30.23;26.95;;;22.30;99.90;;;;;;7334252;19;110525;-82
2022/08/17 05:36:20;;;;;;;31.75;27.30;;;22.30;99.90;;;;;;7342746;19;111730;-83
2022/08/17 05:39:07;;;;;;;36.70;28.42;;;22.30;99.90;;;;;;7335716;19;113208;-82
2022/08/17 05:41:41;;;;;;;39.80;29.40;;;22.30;99.90;;;;;;7336635;19;110981;-82
2022/08/17 05:44:08;;;;;;;36.35;29.02;;;22.30;99.90;;;;;;7332605;19;111097;-82
2022/08/17 05:46:39;;;;;;;37.38;29.83;;;22.20;99.90;;;;;;7334224;19;111655;-82
2022/08/17 05:49:07;;;;;;;41.60;29.40;;;22.30;99.90;;;;;;7332825;19;111346;-82
2022/08/17 05:52:02;;;;;;;38.45;27.92;;;22.30;99.90;;;;;;7334493;19;111859;-83
2022/08/17 05:55:02;;;;;;;34.35;29.60;;;22.30;99.90;;;;;;7332847;19;115118;-82
2022/08/17 05:57:39;;;;;;;46.17;31.25;;;22.40;99.90;;;;;;7335219;19;111681;-83
2022/08/17 06:00:30;;;;;;;42.13;30.00;;;22.40;99.90;;;;;;7340080;19;112199;-82
2022/08/17 06:03:27;;;;;;;40.28;30.20;;;22.50;99.90;;;;;;7332620;19;111591;-81
2022/08/17 06:06:15;;;;;;;44.10;30.63;;;22.50;99.90;;;;;;7334323;19;112097;-81
2022/08/17 06:08:51;;;;;;;35.92;31.08;;;22.60;99.90;;;;;;7333503;19;111337;-81
2022/08/17 06:11:41;;;;;;;37.08;30.85;;;22.60;99.90;;;;;;7335330;19;111801;-81
2022/08/17 06:14:40;;;;;;;40.22;31.92;;;22.80;99.90;;;;;;7330669;19;111841;-81
2022/08/17 06:17:13;;;;;;;37.55;30.58;;;22.80;99.90;;;;;;7332720;19;114724;-81
2022/08/17 06:19:46;;;;;;;41.83;32.22;;;22.90;99.90;;;;;;7332490;19;112293;-81
2022/08/17 06:22:18;;;;;;;47.15;33.25;;;23.00;99.90;;;;;;7338499;19;112577;-81
2022/08/17 06:24:55;;;;;;;48.25;34.45;;;23.00;99.90;;;;;;7329807;19;111944;-80
2022/08/17 06:27:29;;;;;;;47.25;34.70;;;23.10;99.90;;;;;;7333412;19;112712;-80
2022/08/17 06:30:10;;;;;;;51.40;34.88;;;23.10;99.90;;;;;;7333151;19;110849;-80
2022/08/17 06:32:42;;;;;;;52.33;37.33;;;23.20;99.90;;;;;;7334725;19;111446;-81
2022/08/17 06:35:12;;;;;;;44.30;35.15;;;23.20;99.90;;;;;;7333442;19;111165;-81
2022/08/17 06:37:58;;;;;;;46.58;35.38;;;23.20;99.90;;;;;;7330861;19;115118;-81
2022/08/17 06:40:44;;;;;;;46.85;36.88;;;23.30;99.90;;;;;;7332064;19;111225;-81
2022/08/17 06:43:23;;;;;;;56.17;39.25;;;23.30;99.90;;;;;;7332688;19;111774;-81
2022/08/17 06:46:17;;;;;;;52.75;38.70;;;23.30;99.90;;;;;;7338107;19;111637;-81
2022/08/17 06:49:08;;;;;;;50.83;39.13;;;23.30;99.90;;;;;;7327727;19;110815;-82
2022/08/17 06:51:39;;;;;;;56.30;37.28;;;23.30;99.90;;;;;;7331099;19;111250;-79
2022/08/17 06:54:24;;;;;;;49.35;38.35;;;23.30;99.90;;;;;;7333370;19;111292;-79
2022/08/17 06:57:15;;;;;;;47.22;38.13;;;23.30;99.90;;;;;;7331567;19;112418;-80
2022/08/17 06:59:54;;;;;;;45.55;35.90;;;23.40;99.90;;;;;;7331958;19;111375;-79
2022/08/17 07:02:57;;;;;;;47.35;36.22;;;23.50;99.90;;;;;;7336016;19;111744;-79
2022/08/17 07:05:35;;;;;;;47.33;36.90;;;23.60;99.90;;;;;;7339508;19;111624;-79
2022/08/17 07:08:32;;;;;;;59.28;41.85;;;23.70;99.90;;;;;;7339256;19;111605;-79
2022/08/17 07:11:13;;;;;;;56.50;41.35;;;23.70;99.90;;;;;;7343792;19;113461;-79
2022/08/17 07:13:49;;;;;;;52.25;39.45;;;23.70;99.90;;;;;;7338529;19;110260;-79
2022/08/17 07:16:26;;;;;;;;;;;23.70;99.90;;;;;;7336725;19;110757;-80
2022/08/17 07:18:56;;;;;;;48.15;38.00;;;23.70;99.90;;;;;;7340257;19;112939;-80
2022/08/17 07:21:48;;;;;;;49.05;38.22;;;23.80;99.90;;;;;;7334666;19;110131;-80
2022/08/17 07:24:36;;;;;;;54.40;38.92;;;23.90;99.90;;;;;;7336390;19;111027;-80
2022/08/17 07:27:08;;;;;;;;;;;23.90;99.90;;;;;;7335375;19;111560;-80
2022/08/17 07:29:43;;;;;;;57.55;40.10;;;23.90;99.90;;;;;;7344274;19;111144;-80
2022/08/17 07:32:17;;;;;;;52.95;40.08;;;23.90;99.90;;;;;;7338609;19;110245;-80
2022/08/17 07:35:29;;;;;;;65.47;37.53;;;23.90;99.90;;;;;;7341416;19;110915;-79
2022/08/17 07:38:13;;;;;;;46.25;35.42;;;24.00;99.90;;;;;;7335705;19;111586;-79
2022/08/17 07:41:01;;;;;;;43.97;32.95;;;24.00;99.90;;;;;;7336403;19;111857;-79
2022/08/17 07:43:37;;;;;;;45.63;33.75;;;24.00;99.90;;;;;;7335815;19;111163;-79
2022/08/17 07:49:07;;;;;;;40.63;32.35;;;24.10;99.90;;;;;;7336246;19;111969;-79
2022/08/17 07:51:37;;;;;;;45.55;33.40;;;24.20;99.90;;;;;;7337337;19;111559;-80
2022/08/17 07:54:22;;;;;;;45.28;32.67;;;24.20;99.90;;;;;;7336071;19;111849;-80
2022/08/17 07:56:51;;;;;;;40.10;33.20;;;24.20;99.90;;;;;;7335456;19;110777;-80
2022/08/17 07:59:18;;;;;;;44.40;32.88;;;24.20;99.90;;;;;;7341717;19;111553;-80
2022/08/17 08:01:56;;;;;;;39.65;32.05;;;24.20;99.90;;;;;;7334591;19;110584;-79
2022/08/17 08:04:26;;;;;;;42.92;34.00;;;24.20;99.90;;;;;;7333992;19;111324;-79
2022/08/17 08:07:16;;;;;;;43.67;34.33;;;24.20;99.90;;;;;;7334393;19;112821;-80
2022/08/17 08:09:58;;;;;;;50.17;35.67;;;24.20;99.90;;;;;;7336345;19;111825;-79
2022/08/17 08:12:32;;;;;;;45.45;33.97;;;24.20;99.90;;;;;;7329426;19;111881;-80
2022/08/17 08:15:12;;;;;;;43.72;36.35;;;24.20;99.90;;;;;;7333367;19;111605;-80
2022/08/17 08:17:58;;;;;;;47.85;35.22;;;24.20;99.90;;;;;;7335180;19;110800;-80
2022/08/17 08:20:37;;;;;;;46.70;36.75;;;24.20;99.90;;;;;;7333788;19;112000;-79
2022/08/17 08:23:28;;;;;;;48.33;36.75;;;24.20;99.90;;;;;;7341454;19;110968;-78
2022/08/17 08:25:58;;;;;;;45.63;36.00;;;24.10;99.90;;;;;;7335164;19;112669;-80
2022/08/17 08:28:43;;;;;;;52.78;37.05;;;24.10;99.90;;;;;;7326870;19;112063;-81
2022/08/17 08:31:43;;;;;;;42.13;35.00;;;24.10;99.90;;;;;;7333067;19;112808;-80
2022/08/17 08:34:24;;;;;;;46.95;34.60;;;24.20;99.90;;;;;;7333343;19;111203;-80
2022/08/17 08:37:22;;;;;;;46.70;36.30;;;24.20;99.90;;;;;;7333694;19;113802;-81
2022/08/17 08:40:10;;;;;;;44.40;34.78;;;24.20;99.90;;;;;;7334987;19;111494;-80
2022/08/17 08:43:06;;;;;;;46.95;36.80;;;24.20;99.90;;;;;;7334451;19;110444;-80
2022/08/17 08:46:00;;;;;;;47.45;37.92;;;24.20;99.90;;;;;;7331982;19;112775;-79
2022/08/17 08:48:36;;;;;;;51.85;38.55;;;24.20;99.90;;;;;;7331310;19;112027;-80
2022/08/17 08:51:29;;;;;;;49.80;39.17;;;24.20;99.90;;;;;;7333290;19;112712;-81
2022/08/17 08:54:09;;;;;;;48.72;37.47;;;24.20;99.90;;;;;;7332083;19;112919;-81
2022/08/17 08:56:43;;;;;;;47.42;38.95;;;24.20;99.90;;;;;;7332599;19;111294;-80
2022/08/17 08:59:58;;;;;;;50.05;37.75;;;24.10;99.90;;;;;;7334212;19;112651;-81
2022/08/17 09:02:55;;;;;;;50.83;39.72;;;24.10;99.90;;;;;;7333920;19;112792;-81
2022/08/17 09:05:41;;;;;;;47.92;39.28;;;24.00;99.90;;;;;;7331957;19;112347;-81
2022/08/17 09:08:22;;;;;;;47.08;37.38;;;23.90;99.90;;;;;;7333887;19;111842;-80
2022/08/17 09:11:09;;;;;;;39.17;34.25;;;23.80;99.90;;;;;;7338807;19;111705;-81
2022/08/17 09:13:48;;;;;;;44.05;34.88;;;23.70;99.90;;;;;;7334232;19;110924;-81
2022/08/17 09:16:28;;;;;;;46.42;36.55;;;23.70;99.90;;;;;;7331243;19;111630;-82
2022/08/17 09:19:10;;;;;;;45.63;37.40;;;23.70;99.90;;;;;;7334180;19;111888;-80
2022/08/17 09:21:40;;;;;;;45.88;36.47;;;23.70;99.90;;;;;;7331681;19;113224;-80
2022/08/17 09:24:27;;;;;;;;;;;23.70;99.90;;;;;;7329457;19;111844;-81
2022/08/17 09:26:58;;;;;;;43.67;35.88;;;23.60;99.90;;;;;;7337630;19;112606;-81
2022/08/17 09:29:33;;;;;;;43.30;35.72;;;23.60;99.90;;;;;;7334587;19;110750;-81
2022/08/17 09:32:18;;;;;;;41.95;35.28;;;23.70;99.90;;;;;;7333193;19;111835;-80
2022/08/17 09:34:53;;;;;;;47.55;34.28;;;23.70;99.90;;;;;;7340008;19;111450;-80
2022/08/17 09:37:36;;;;;;;46.63;35.00;;;23.70;99.90;;;;;;7334968;19;111892;-79
2022/08/17 09:40:18;;;;;;;42.35;33.75;;;23.60;99.90;;;;;;7334181;19;111752;-78
2022/08/17 09:43:00;;;;;;;38.08;31.90;;;23.60;99.90;;;;;;7331471;19;110257;-78
2022/08/17 09:45:41;;;;;;;44.50;35.28;;;23.50;99.90;;;;;;7329986;19;110679;-79
2022/08/17 09:48:19;;;;;;;39.95;33.55;;;23.40;99.90;;;;;;7332543;19;111207;-79
2022/08/17 09:51:02;;;;;;;38.47;33.63;;;23.40;99.90;;;;;;7328930;19;112209;-79
2022/08/17 09:53:35;;;;;;;37.40;31.38;;;23.40;99.90;;;;;;7333145;19;114585;-78
2022/08/17 09:56:11;;;;;;;40.97;32.30;;;23.40;99.90;;;;;;7333410;19;111309;-77
2022/08/17 09:58:55;;;;;;;40.40;32.90;;;23.30;99.90;;;;;;7337693;19;111045;-77
2022/08/17 10:01:36;;;;;;;46.42;33.60;;;23.30;99.90;;;;;;7332331;19;111046;-77
2022/08/17 10:04:13;;;;;;;44.58;35.28;;;23.10;99.90;;;;;;7328845;19;111385;-78
2022/08/17 10:06:57;;;;;;;47.22;35.78;;;23.10;99.90;;;;;;7331009;19;110599;-76
2022/08/17 10:10:01;;;;;;;45.30;35.35;;;23.20;99.90;;;;;;7330284;19;112813;-78
2022/08/17 10:12:49;;;;;;;39.95;31.48;;;23.30;99.90;;;;;;7333113;19;111408;-78
2022/08/17 10:15:49;;;;;;;41.80;30.15;;;23.40;99.90;;;;;;7332207;19;112118;-77
2022/08/17 10:19:00;;;;;;;39.03;30.02;;;23.30;99.90;;;;;;7332574;19;111197;-78
2022/08/17 10:27:50;;;;;;;33.50;28.70;;;23.30;99.90;;;;;;7326226;19;112956;-77
2022/08/17 10:30:22;;;;;;;35.60;28.70;;;23.20;99.90;;;;;;7326205;19;112262;-77
2022/08/17 10:32:58;;;;;;;34.55;29.17;;;23.20;99.90;;;;;;7326583;19;112194;-78
2022/08/17 10:36:07;;;;;;;35.92;29.10;;;23.10;99.90;;;;;;7328162;19;111523;-78
2022/08/17 10:38:46;;;;;;;36.63;29.95;;;23.10;99.90;;;;;;7333495;19;111648;-77
2022/08/17 10:41:49;;;;;;;38.75;29.30;;;23.00;99.90;;;;;;7331544;19;111716;-78
2022/08/17 10:44:33;;;;;;;35.25;28.92;;;22.90;99.90;;;;;;7334899;19;111462;-77
2022/08/17 10:47:13;;;;;;;38.70;28.52;;;22.80;99.90;;;;;;7335150;19;111873;-78
2022/08/17 10:49:48;;;;;;;41.38;30.05;;;22.70;99.90;;;;;;7339651;19;110862;-78
2022/08/17 10:52:18;;;;;;;35.63;30.13;;;22.70;99.90;;;;;;7332940;19;112185;-78
2022/08/17 10:54:50;;;;;;;41.13;29.85;;;22.70;99.90;;;;;;7334963;19;111648;-77
2022/08/17 10:57:30;;;;;;;39.42;29.65;;;22.60;99.90;;;;;;7337259;19;111279;-78
2022/08/17 10:59:58;;;;;;;;;;;22.60;99.90;;;;;;7338832;19;113556;-78
2022/08/17 11:02:37;;;;;;;39.80;29.08;;;22.60;99.90;;;;;;7343895;19;111675;-80
2022/08/17 11:05:31;;;;;;;41.03;29.00;;;22.60;99.90;;;;;;7336452;19;110314;-79
2022/08/17 11:08:35;;;;;;;36.03;27.80;;;22.70;99.90;;;;;;7341988;19;111817;-78
2022/08/17 11:11:35;;;;;;;35.90;28.83;;;22.90;99.90;;;;;;7347846;19;110152;-77
2022/08/17 11:14:30;;;;;;;33.55;27.02;;;23.00;99.90;;;;;;7339242;19;111775;-78
2022/08/17 11:17:12;;;;;;;35.58;27.92;;;23.10;99.90;;;;;;7339862;19;111288;-79
2022/08/17 11:19:45;;;;;;;36.80;27.27;;;23.10;99.90;;;;;;7340778;19;111340;-79
2022/08/17 11:22:47;;;;;;;36.13;28.67;;;23.10;99.90;;;;;;7339690;19;111825;-78
2022/08/17 11:25:21;;;;;;;32.90;27.02;;;23.10;99.90;;;;;;7340289;19;111665;-79
2022/08/17 11:28:03;;;;;;;38.17;28.80;;;23.00;99.90;;;;;;7339544;19;111448;-79
2022/08/17 11:30:45;;;;;;;30.92;26.90;;;23.00;99.90;;;;;;7340402;19;111637;-79
2022/08/17 11:33:32;;;;;;;34.20;27.42;;;23.10;99.90;;;;;;7338329;19;111261;-79
2022/08/17 11:36:45;;;;;;;30.88;25.92;;;23.10;99.90;;;;;;7345020;19;111428;-79
2022/08/17 11:39:36;;;;;;;32.33;26.80;;;23.10;99.90;;;;;;7335120;19;111166;-80
2022/08/17 11:42:18;;;;;;;30.90;26.20;;;23.10;99.90;;;;;;7337849;19;110460;-80
2022/08/17 11:45:07;;;;;;;30.65;26.33;;;23.00;99.90;;;;;;7336938;19;111700;-80
2022/08/17 11:53:50;;;;;;;29.63;26.45;;;22.80;99.90;;;;;;7338024;19;111947;-79
2022/08/17 11:56:45;;;;;;;;;;;22.80;99.90;;;;;;7338391;19;112713;-81
2022/08/17 11:59:40;;;;;;;36.25;28.67;;;22.70;99.90;;;;;;7341751;19;111418;-79
2022/08/17 12:02:34;;;;;;;36.35;28.52;;;22.70;99.90;;;;;;7341714;19;111954;-79
2022/08/17 12:05:11;;;;;;;41.65;31.05;;;22.60;99.90;;;;;;7334919;19;111492;-81
2022/08/17 12:07:50;;;;;;;40.90;27.23;;;22.50;99.90;;;;;;7337904;19;111073;-81
2022/08/17 12:10:22;;;;;;;57.58;28.60;;;22.50;99.90;;;;;;7336057;19;111386;-81
2022/08/17 12:12:51;;;;;;;45.03;28.45;;;22.60;99.90;;;;;;7336555;19;114170;-79
2022/08/17 12:15:29;;;;;;;33.45;27.17;;;22.60;99.90;;;;;;7334031;19;110838;-79
2022/08/17 12:17:56;;;;;;;32.72;27.58;;;22.60;99.90;;;;;;7335813;19;114785;-80
2022/08/17 12:20:42;;;;;;;32.38;26.80;;;22.60;99.90;;;;;;7334666;19;110366;-79
2022/08/17 12:23:21;;;;;;;34.22;27.35;;;22.60;99.90;;;;;;7336269;19;110334;-79
2022/08/17 12:26:11;;;;;;;33.58;27.92;;;22.60;99.90;;;;;;7342369;19;111310;-79
2022/08/17 12:28:44;;;;;;;35.10;26.23;;;22.70;99.90;;;;;;7334621;19;113176;-78
2022/08/17 12:31:20;;;;;;;34.08;26.40;;;22.80;99.90;;;;;;7334459;19;111351;-79
2022/08/17 12:33:48;;;;;;;33.47;26.63;;;22.80;99.90;;;;;;7325661;19;113035;-78
2022/08/17 12:36:23;;;;;;;36.55;27.75;;;22.80;99.90;;;;;;7335277;19;110789;-78
2022/08/17 12:39:00;;;;;;;37.15;27.80;;;22.70;99.90;;;;;;7332418;19;111696;-78
2022/08/17 12:41:43;;;;;;;36.63;29.10;;;22.80;99.90;;;;;;7331384;19;111601;-78
2022/08/17 12:44:11;;;;;;;31.58;27.55;;;22.80;99.90;;;;;;7331705;19;112844;-78
2022/08/17 12:46:54;;;;;;;37.00;27.58;;;22.80;99.90;;;;;;7330783;19;112142;-79
2022/08/17 12:49:29;;;;;;;31.23;26.88;;;22.90;99.90;;;;;;7337568;19;110778;-78
2022/08/17 12:52:25;;;;;;;35.55;28.63;;;23.00;99.90;;;;;;7333275;19;110293;-79
2022/08/17 12:54:59;;;;;;;35.92;29.25;;;23.10;99.90;;;;;;7333091;19;111022;-79
2022/08/17 12:57:40;;;;;;;37.08;31.20;;;23.00;99.90;;;;;;7332611;19;111304;-78
2022/08/17 13:00:30;;;;;;;38.22;32.20;;;23.00;99.90;;;;;;7332303;19;111198;-79
2022/08/17 13:03:02;;;;;;;36.47;30.77;;;23.00;99.90;;;;;;7334766;19;110407;-78
2022/08/17 13:05:35;;;;;;;40.10;30.35;;;23.10;99.90;;;;;;7334038;19;110761;-79
2022/08/17 13:08:36;;;;;;;36.50;28.65;;;23.10;99.90;;;;;;7333055;19;111241;-78
2022/08/17 13:11:05;;;;;;;39.63;28.20;;;23.10;99.90;;;;;;7334429;19;110749;-79
2022/08/17 13:13:35;;;;;;;37.33;30.02;;;23.10;99.90;;;;;;7338605;19;111104;-78
2022/08/17 13:16:08;;;;;;;34.22;27.55;;;23.10;99.90;;;;;;7330408;19;111698;-79
2022/08/17 13:18:46;;;;;;;36.10;28.65;;;23.20;99.90;;;;;;7328799;19;111512;-79
2022/08/17 13:21:29;;;;;;;39.78;29.90;;;23.20;99.90;;;;;;7329889;19;110230;-79
2022/08/17 13:24:12;;;;;;;38.22;29.48;;;23.30;99.90;;;;;;7334298;19;111442;-79
2022/08/17 13:26:44;;;;;;;39.83;32.08;;;23.20;99.90;;;;;;7333110;19;110781;-81
2022/08/17 13:29:25;;;;;;;45.53;32.20;;;23.10;99.90;;;;;;7331716;19;110880;-81
2022/08/17 13:32:08;;;;;;;41.60;30.25;;;23.10;99.90;;;;;;7331730;19;114254;-80
2022/08/17 13:34:49;;;;;;;31.97;28.57;;;23.10;99.90;;;;;;7339533;19;112728;-79
2022/08/17 13:37:36;;;;;;;39.13;30.85;;;23.10;99.90;;;;;;7334048;19;113552;-80
2022/08/17 13:40:09;;;;;;;40.20;30.98;;;23.20;99.90;;;;;;7334056;19;110810;-79